Time;durP1;ratioP1;P1;durP2;ratioP2;P2;SDS_P1;SDS_P2;PMS_P1;PMS_P2;Temp;Humidity;BMP_temperature;BMP_pressure;BME280_temperature;BME280_humidity;BME280_pressure;Samples;Min_cycle;Max_cycle;Signal;HPM_P1;HPM_P2
2023/04/24 00:02:39;;;;;;;15.43;7.60;;;;;;;10.95;57.34;93679.25;5064317;28;20044;-77
2023/04/24 00:05:36;;;;;;;11.75;6.93;;;;;;;10.87;58.09;93686.19;5058297;28;20040;-77
2023/04/24 00:08:02;;;;;;;14.70;7.35;;;;;;;10.88;58.65;93676.31;5064064;28;20037;-77
2023/04/24 00:10:28;;;;;;;16.05;7.65;;;;;;;10.92;58.84;93672.69;5065464;28;20078;-76
2023/04/24 00:12:53;;;;;;;14.38;7.18;;;;;;;10.95;58.84;93661.38;5065368;28;20224;-77
2023/04/24 00:15:19;;;;;;;12.75;7.25;;;;;;;10.99;58.90;93664.97;5065496;28;20021;-76
2023/04/24 00:17:44;;;;;;;23.77;7.95;;;;;;;11.00;59.43;93665.75;5065561;28;20135;-77
2023/04/24 00:20:10;;;;;;;16.45;6.80;;;;;;;10.94;58.25;93659.81;5065506;28;20074;-77
2023/04/24 00:22:36;;;;;;;23.35;7.13;;;;;;;10.91;58.72;93660.47;5065414;28;20338;-76
2023/04/24 00:25:01;;;;;;;14.70;7.50;;;;;;;10.87;58.86;93648.88;5065078;28;20025;-76
2023/04/24 00:27:27;;;;;;;13.02;7.78;;;;;;;10.87;58.58;93654.19;5064051;28;20029;-76
2023/04/24 00:29:55;;;;;;;9.88;6.45;;;;;;;10.86;58.78;93652.63;5065434;28;20025;-75
2023/04/24 00:32:20;;;;;;;11.32;6.10;;;;;;;10.76;58.61;93655.63;5065317;28;20185;-76
2023/04/24 00:34:46;;;;;;;15.88;7.60;;;;;;;10.64;58.23;93646.44;5065298;28;20077;-76
2023/04/24 00:37:11;;;;;;;12.23;6.75;;;;;;;10.63;58.47;93662.75;5065032;28;20059;-75
2023/04/24 00:39:37;;;;;;;13.25;6.32;;;;;;;10.53;59.00;93665.75;5064882;28;20028;-75
2023/04/24 00:42:03;;;;;;;12.65;6.78;;;;;;;10.41;59.21;93663.72;5065119;28;20056;-75
2023/04/24 00:44:28;;;;;;;16.95;6.82;;;;;;;10.29;59.57;93664.31;5065061;28;20036;-75
2023/04/24 00:46:54;;;;;;;13.85;7.25;;;;;;;10.17;59.88;93662.28;5065032;28;20028;-75
2023/04/24 00:49:21;;;;;;;15.60;6.30;;;;;;;10.14;60.06;93665.59;5065033;28;20025;-75
2023/04/24 00:51:47;;;;;;;12.30;6.70;;;;;;;10.19;60.16;93673.41;5065043;28;20107;-77
2023/04/24 00:54:13;;;;;;;13.48;6.07;;;;;;;10.14;59.99;93670.94;5064771;28;20029;-76
2023/04/24 00:56:40;;;;;;;8.77;5.28;;;;;;;10.15;59.63;93661.81;5064916;28;20097;-76
2023/04/24 00:59:06;;;;;;;13.00;5.70;;;;;;;10.12;59.81;93664.34;5064689;28;20063;-76
2023/04/24 01:01:32;;;;;;;14.45;5.85;;;;;;;10.10;59.90;93667.34;5064712;28;20028;-76
2023/04/24 01:03:58;;;;;;;15.90;6.60;;;;;;;10.07;59.69;93657.28;5064677;28;20246;-76
2023/04/24 01:06:27;;;;;;;10.85;5.97;;;;;;;10.07;59.97;93654.63;5063139;28;20037;-76
2023/04/24 01:08:55;;;;;;;13.88;6.13;;;;;;;10.13;59.56;93647.28;5064475;28;20021;-76
2023/04/24 01:11:21;;;;;;;18.08;6.90;;;;;;;10.20;60.65;93651.03;5064553;28;20024;-76
2023/04/24 01:13:47;;;;;;;13.73;6.53;;;;;;;10.24;61.18;93646.63;5063181;28;20224;-77
2023/04/24 01:16:17;;;;;;;11.25;6.65;;;;;;;10.35;61.39;93638.34;5064552;28;20058;-76
2023/04/24 01:18:43;;;;;;;13.98;7.25;;;;;;;10.47;63.06;93635.03;5064981;28;20048;-77
2023/04/24 01:21:10;;;;;;;16.88;7.35;;;;;;;10.49;63.02;93638.94;5064772;28;20095;-76
2023/04/24 01:23:36;;;;;;;12.20;7.30;;;;;;;10.54;62.71;93620.13;5064733;28;20224;-76
2023/04/24 01:26:04;;;;;;;13.15;7.55;;;;;;;10.65;64.27;93625.88;5064436;28;20040;-76
2023/04/24 01:28:30;;;;;;;13.25;7.78;;;;;;;10.72;65.49;93625.38;5064115;28;20088;-76
2023/04/24 01:30:56;;;;;;;15.75;8.43;;;;;;;10.74;66.70;93625.84;5064594;28;20070;-76
2023/04/24 01:33:22;;;;;;;17.85;8.27;;;;;;;10.74;67.28;93626.63;5064727;28;20035;-76
2023/04/24 01:35:48;;;;;;;19.27;7.68;;;;;;;10.73;67.16;93624.31;5064638;28;20040;-76
2023/04/24 01:38:14;;;;;;;16.35;10.60;;;;;;;10.66;67.08;93616.00;5063906;28;20028;-76
2023/04/24 01:40:40;;;;;;;13.48;7.57;;;;;;;10.64;67.44;93618.97;5064138;28;20270;-76
2023/04/24 01:43:05;;;;;;;15.63;7.97;;;;;;;10.57;66.77;93624.03;5063842;28;20025;-76
2023/04/24 01:45:31;;;;;;;14.30;8.77;;;;;;;10.48;66.43;93615.28;5063820;28;20039;-76
2023/04/24 01:47:56;;;;;;;13.85;8.45;;;;;;;10.39;67.19;93620.63;5063789;28;20131;-76
2023/04/24 01:50:22;;;;;;;15.32;8.35;;;;;;;10.34;67.85;93618.91;5063853;28;20033;-76
2023/04/24 01:52:48;;;;;;;13.60;7.70;;;;;;;10.32;67.22;93620.31;5062753;28;20204;-76
2023/04/24 01:55:13;;;;;;;15.68;8.65;;;;;;;10.22;67.99;93618.75;5063468;28;20024;-76
2023/04/24 01:57:39;;;;;;;12.93;7.93;;;;;;;10.15;68.39;93624.53;5063650;28;20029;-76
2023/04/24 02:00:06;;;;;;;13.02;8.00;;;;;;;10.11;68.68;93617.50;5063462;28;20196;-76
2023/04/24 02:02:32;;;;;;;19.52;8.30;;;;;;;10.07;67.89;93614.69;5063584;28;20066;-76
2023/04/24 02:04:58;;;;;;;22.67;9.05;;;;;;;10.04;67.98;93621.44;5063575;28;20254;-76
2023/04/24 02:07:23;;;;;;;14.70;8.10;;;;;;;9.84;67.95;93614.88;5063411;28;20119;-75
2023/04/24 02:09:49;;;;;;;14.65;7.72;;;;;;;9.73;67.79;93612.81;5063525;28;20028;-75
2023/04/24 02:12:17;;;;;;;18.73;9.23;;;;;;;9.68;68.39;93605.78;5062998;28;20052;-76
2023/04/24 02:14:43;;;;;;;16.27;9.27;;;;;;;9.54;69.27;93615.78;5063348;28;20024;-76
2023/04/24 02:17:09;;;;;;;16.20;8.25;;;;;;;9.30;69.96;93601.06;5063059;28;20029;-75
2023/04/24 02:19:35;;;;;;;12.25;7.70;;;;;;;9.21;69.81;93609.00;5062630;28;20083;-76
2023/04/24 02:22:00;;;;;;;16.48;7.43;;;;;;;9.09;69.89;93608.84;5063217;28;20024;-77
2023/04/24 02:24:26;;;;;;;12.23;7.30;;;;;;;9.04;69.93;93617.75;5063208;28;20033;-75
2023/04/24 02:26:51;;;;;;;15.85;7.95;;;;;;;9.03;70.50;93613.50;5062967;28;20025;-75
2023/04/24 02:29:17;;;;;;;15.75;6.50;;;;;;;9.01;70.51;93614.91;5063220;28;20028;-75
2023/04/24 02:31:43;;;;;;;19.42;7.68;;;;;;;9.00;70.18;93608.03;5062927;28;20048;-75
2023/04/24 02:34:08;;;;;;;13.27;7.40;;;;;;;8.98;70.36;93602.25;5062976;28;20032;-77
2023/04/24 02:36:34;;;;;;;12.32;6.97;;;;;;;9.03;69.85;93602.09;5062980;28;20058;-77
2023/04/24 02:39:00;;;;;;;10.73;6.75;;;;;;;9.09;69.74;93597.44;5062938;28;20376;-77
2023/04/24 02:41:31;;;;;;;17.77;7.65;;;;;;;9.01;70.08;93598.97;5062766;28;20071;-75
2023/04/24 02:43:57;;;;;;;12.68;7.18;;;;;;;8.97;70.07;93592.69;5061762;28;20315;-77
2023/04/24 02:46:22;;;;;;;16.33;6.78;;;;;;;8.97;70.16;93587.38;5061643;28;20025;-76
2023/04/24 02:48:48;;;;;;;13.30;7.32;;;;;;;8.90;70.27;93587.84;5063253;28;20016;-75
2023/04/24 02:51:13;;;;;;;17.45;7.93;;;;;;;8.79;70.18;93589.19;5062868;28;20084;-75
2023/04/24 02:53:39;;;;;;;13.52;6.95;;;;;;;8.59;70.39;93582.59;5062749;28;20016;-76
2023/04/24 02:56:04;;;;;;;14.70;6.43;;;;;;;8.49;71.19;93588.94;5062919;28;20084;-75
2023/04/24 02:58:30;;;;;;;18.85;6.88;;;;;;;8.40;71.39;93570.25;5062579;28;20028;-76
2023/04/24 03:00:56;;;;;;;13.82;6.70;;;;;;;8.42;71.54;93584.06;5062752;28;20096;-76
2023/04/24 03:03:22;;;;;;;14.45;7.47;;;;;;;8.40;71.51;93585.44;5063073;28;20020;-77
2023/04/24 03:05:47;;;;;;;14.10;7.43;;;;;;;8.45;71.88;93588.00;5062773;28;20017;-77
2023/04/24 03:08:14;;;;;;;15.20;7.10;;;;;;;8.52;71.38;93593.63;5062846;28;20027;-77
2023/04/24 03:10:39;;;;;;;17.80;7.45;;;;;;;8.63;70.77;93605.56;5061511;28;20092;-77
2023/04/24 03:13:05;;;;;;;10.60;6.57;;;;;;;8.70;70.33;93601.69;5062513;28;20071;-75
2023/04/24 03:15:31;;;;;;;12.70;5.97;;;;;;;8.74;70.53;93606.06;5062543;28;20020;-76
2023/04/24 03:17:56;;;;;;;11.43;5.75;;;;;;;8.77;70.09;93607.31;5062557;28;20028;-75
2023/04/24 03:20:22;;;;;;;17.23;7.07;;;;;;;8.74;70.31;93602.63;5062396;28;20357;-75
2023/04/24 03:22:47;;;;;;;12.30;6.38;;;;;;;8.69;70.36;93608.88;5062493;28;20021;-75
2023/04/24 03:25:13;;;;;;;11.07;6.82;;;;;;;8.67;70.57;93605.75;5062383;28;20374;-75
2023/04/24 03:27:39;;;;;;;16.83;7.00;;;;;;;8.63;70.64;93602.91;5062593;28;20239;-76
2023/04/24 03:30:06;;;;;;;10.38;6.43;;;;;;;8.61;70.28;93605.09;5063677;28;20032;-76
2023/04/24 03:32:32;;;;;;;11.82;6.40;;;;;;;8.55;70.50;93608.19;5066481;28;20059;-75
2023/04/24 03:34:57;;;;;;;11.90;6.28;;;;;;;8.52;70.52;93603.47;5066451;28;20024;-76
2023/04/24 03:37:23;;;;;;;15.52;7.78;;;;;;;8.57;70.42;93601.47;5066491;28;20334;-75
2023/04/24 03:39:49;;;;;;;11.82;6.32;;;;;;;8.56;70.26;93605.22;5066452;28;20036;-75
2023/04/24 03:42:14;;;;;;;13.20;6.45;;;;;;;8.63;70.61;93600.25;5066375;28;20031;-75
2023/04/24 03:44:40;;;;;;;16.75;6.68;;;;;;;8.68;70.08;93595.91;5066139;28;20229;-75
2023/04/24 03:47:05;;;;;;;13.13;6.63;;;;;;;8.70;70.02;93599.03;5066183;28;20024;-74
2023/04/24 03:49:31;;;;;;;17.02;7.00;;;;;;;8.76;69.89;93595.16;5066554;28;20215;-75
2023/04/24 03:51:56;;;;;;;11.27;6.90;;;;;;;8.77;68.99;93600.16;5066281;28;20311;-75
2023/04/24 03:54:22;;;;;;;12.90;7.32;;;;;;;8.79;68.95;93603.28;5066276;28;20025;-75
2023/04/24 03:56:47;;;;;;;19.00;6.43;;;;;;;8.84;68.92;93602.38;5066449;28;20017;-75
2023/04/24 03:59:13;;;;;;;11.10;6.07;;;;;;;8.85;68.88;93601.25;5066247;28;20255;-75
2023/04/24 04:01:39;;;;;;;15.32;6.45;;;;;;;8.86;68.97;93608.16;5066089;28;20025;-75
2023/04/24 04:04:08;;;;;;;8.82;6.10;;;;;;;8.85;69.11;93611.88;5066083;28;20032;-75
2023/04/24 04:06:34;;;;;;;9.63;5.95;;;;;;;8.87;68.41;93607.03;5066026;28;20035;-75
2023/04/24 04:09:00;;;;;;;15.57;6.85;;;;;;;8.90;69.17;93603.78;5065700;28;20025;-76
2023/04/24 04:11:26;;;;;;;13.43;6.20;;;;;;;8.93;68.42;93599.72;5065810;28;20021;-75
2023/04/24 04:13:51;;;;;;;12.73;5.72;;;;;;;8.96;68.13;93604.44;5065566;28;20045;-75
2023/04/24 04:16:17;;;;;;;14.95;8.02;;;;;;;9.03;68.96;93600.22;5065883;28;20329;-78
2023/04/24 04:18:43;;;;;;;12.75;6.15;;;;;;;9.12;67.06;93604.75;5065882;28;20028;-75
2023/04/24 04:21:09;;;;;;;12.93;6.18;;;;;;;9.17;66.76;93608.06;5065649;28;20028;-75
2023/04/24 04:23:34;;;;;;;12.57;5.97;;;;;;;9.21;66.78;93605.59;5065769;28;20032;-77
2023/04/24 04:26:00;;;;;;;10.73;6.20;;;;;;;9.28;67.35;93602.47;5065556;28;20032;-75
2023/04/24 04:28:26;;;;;;;17.58;6.05;;;;;;;9.36;66.98;93604.34;5065448;28;20028;-75
2023/04/24 04:30:55;;;;;;;17.08;6.70;;;;;;;9.51;66.42;93605.78;5065464;28;20057;-75
2023/04/24 04:33:21;;;;;;;11.60;6.25;;;;;;;9.62;66.83;93612.34;5065155;28;20025;-75
2023/04/24 04:35:51;;;;;;;11.15;5.95;;;;;;;9.71;65.25;93615.81;5065552;28;20100;-76
2023/04/24 04:38:18;;;;;;;14.75;6.10;;;;;;;9.80;64.43;93608.59;5065511;28;20028;-74
2023/04/24 04:40:44;;;;;;;10.68;6.05;;;;;;;9.87;63.88;93613.47;5064997;28;20028;-74
2023/04/24 04:43:10;;;;;;;19.70;7.13;;;;;;;9.93;64.92;93616.75;5064340;28;20215;-73
2023/04/24 04:45:38;;;;;;;25.90;7.38;;;;;;;9.93;65.88;93627.38;5065020;28;20029;-73
2023/04/24 04:48:07;;;;;;;18.20;7.90;;;;;;;9.88;66.33;93638.22;5064003;28;20040;-74
2023/04/24 04:50:32;;;;;;;18.77;7.40;;;;;;;9.82;66.35;93640.22;5065195;28;20035;-73
2023/04/24 04:52:58;;;;;;;19.27;8.70;;;;;;;9.74;66.56;93644.44;5064938;28;20052;-74
2023/04/24 04:55:23;;;;;;;22.92;7.63;;;;;;;9.76;67.21;93638.81;5065164;28;20259;-74
2023/04/24 04:57:49;;;;;;;18.15;7.20;;;;;;;9.70;66.62;93640.84;5064728;28;20035;-74
2023/04/24 05:00:15;;;;;;;15.23;8.75;;;;;;;9.71;66.83;93638.97;5063223;28;20079;-73
2023/04/24 05:02:40;;;;;;;18.30;8.25;;;;;;;9.69;66.37;93630.50;5063073;28;20037;-73
2023/04/24 05:05:07;;;;;;;15.57;7.30;;;;;;;9.74;65.74;93635.69;5062879;28;20336;-73
2023/04/24 05:07:32;;;;;;;15.38;7.03;;;;;;;9.79;65.97;93638.19;5062956;28;20024;-73
2023/04/24 05:09:58;;;;;;;18.60;7.78;;;;;;;9.81;66.20;93642.13;5062803;28;20059;-73
2023/04/24 05:12:23;;;;;;;24.52;8.30;;;;;;;9.93;66.28;93638.03;5062783;28;20121;-73
2023/04/24 05:14:49;;;;;;;16.67;7.13;;;;;;;9.94;66.70;93647.59;5064196;28;20071;-74
2023/04/24 05:17:15;;;;;;;17.10;7.32;;;;;;;9.98;65.96;93643.22;5064389;28;20013;-73
2023/04/24 05:19:40;;;;;;;12.45;7.28;;;;;;;9.99;65.28;93639.44;5064866;28;20037;-73
2023/04/24 05:22:06;;;;;;;18.15;6.97;;;;;;;10.04;65.37;93648.06;5064433;28;20275;-73
2023/04/24 05:24:33;;;;;;;15.15;6.53;;;;;;;10.11;66.07;93639.59;5064523;28;20025;-73
2023/04/24 05:26:59;;;;;;;18.58;8.93;;;;;;;10.14;64.14;93646.97;5064135;28;20032;-73
2023/04/24 05:29:26;;;;;;;20.70;7.07;;;;;;;10.14;64.43;93643.53;5064289;28;20024;-73
2023/04/24 05:31:52;;;;;;;19.80;7.85;;;;;;;10.19;65.05;93638.78;5064221;28;20025;-74
2023/04/24 05:34:17;;;;;;;23.77;7.82;;;;;;;10.25;64.48;93639.41;5064435;28;20071;-72
2023/04/24 05:36:43;;;;;;;15.50;6.78;;;;;;;10.32;63.21;93638.97;5064078;28;20021;-72
2023/04/24 05:39:09;;;;;;;21.25;8.10;;;;;;;10.37;62.79;93636.91;5063956;28;20334;-73
2023/04/24 05:41:34;;;;;;;19.65;7.43;;;;;;;10.45;62.54;93632.69;5063955;28;20031;-73
2023/04/24 05:44:00;;;;;;;17.73;7.57;;;;;;;10.50;62.49;93629.06;5063837;28;20254;-76
2023/04/24 05:46:25;;;;;;;19.73;7.30;;;;;;;10.55;61.70;93637.66;5063730;28;20078;-73
2023/04/24 05:48:51;;;;;;;14.02;7.18;;;;;;;10.55;61.22;93632.34;5063635;28;20219;-73
2023/04/24 05:51:16;;;;;;;17.05;8.30;;;;;;;10.60;61.43;93634.84;5063460;28;20272;-73
2023/04/24 05:53:41;;;;;;;10.65;6.75;;;;;;;10.55;61.51;93640.34;5062601;28;20029;-73
2023/04/24 05:56:07;;;;;;;21.55;8.15;;;;;;;10.58;62.20;93634.38;5063568;28;20306;-73
2023/04/24 05:58:32;;;;;;;19.30;7.22;;;;;;;10.67;61.17;93630.91;5063174;28;20021;-73
2023/04/24 06:00:58;;;;;;;13.63;7.38;;;;;;;10.62;60.74;93627.31;5063777;28;20025;-73
2023/04/24 06:03:24;;;;;;;25.42;8.00;;;;;;;10.69;61.47;93634.81;5063594;28;20096;-73
2023/04/24 06:05:51;;;;;;;18.90;7.40;;;;;;;10.80;60.60;93633.34;5063565;28;20024;-73
2023/04/24 06:08:16;;;;;;;20.45;7.93;;;;;;;10.73;60.78;93629.63;5063385;28;20024;-73
2023/04/24 06:10:42;;;;;;;15.98;7.53;;;;;;;10.76;61.20;93626.31;5063436;28;20021;-73
2023/04/24 06:13:07;;;;;;;22.15;7.90;;;;;;;10.90;60.93;93637.56;5063183;28;20048;-73
2023/04/24 06:15:33;;;;;;;17.70;7.80;;;;;;;10.98;61.06;93633.28;5062908;28;20304;-73
2023/04/24 06:17:59;;;;;;;17.42;8.25;;;;;;;11.00;60.29;93631.84;5063109;28;20135;-73
2023/04/24 06:20:24;;;;;;;13.85;7.45;;;;;;;11.06;60.25;93634.38;5063395;28;20021;-73
2023/04/24 06:22:50;;;;;;;12.25;6.38;;;;;;;11.14;59.94;93636.22;5063463;28;20028;-74
2023/04/24 06:25:16;;;;;;;19.75;7.68;;;;;;;11.18;59.53;93642.47;5063074;28;20025;-73
2023/04/24 06:27:41;;;;;;;23.42;7.47;;;;;;;11.20;60.20;93637.59;5063213;28;20017;-72
2023/04/24 06:30:07;;;;;;;14.85;7.35;;;;;;;11.35;59.86;93636.25;5063036;28;20063;-73
2023/04/24 06:32:32;;;;;;;19.13;7.55;;;;;;;11.53;58.81;93643.03;5063216;28;20028;-74
2023/04/24 06:34:58;;;;;;;19.23;7.32;;;;;;;11.67;58.22;93634.78;5063262;28;20025;-73
2023/04/24 06:37:23;;;;;;;20.83;7.05;;;;;;;11.79;57.36;93629.50;5063188;28;20021;-73
2023/04/24 06:39:49;;;;;;;15.10;7.22;;;;;;;11.94;56.66;93638.06;5063178;28;20021;-74
2023/04/24 06:42:15;;;;;;;10.82;6.43;;;;;;;12.09;56.45;93636.69;5063253;28;20033;-74
2023/04/24 06:44:40;;;;;;;19.88;6.20;;;;;;;12.08;56.36;93643.16;5063036;28;20227;-75
2023/04/24 06:47:09;;;;;;;15.82;5.88;;;;;;;12.11;56.09;93645.97;5063101;28;20043;-75
2023/04/24 06:49:36;;;;;;;13.65;5.95;;;;;;;12.06;55.39;93645.38;5062826;28;20021;-74
2023/04/24 06:52:01;;;;;;;34.08;6.55;;;;;;;12.08;55.80;93651.94;5062907;28;20039;-74
2023/04/24 06:54:27;;;;;;;10.55;5.70;;;;;;;12.11;55.11;93656.66;5062825;28;20025;-72
2023/04/24 06:56:52;;;;;;;14.30;6.07;;;;;;;12.13;54.71;93651.75;5062646;28;20051;-73
2023/04/24 06:59:18;;;;;;;13.35;6.15;;;;;;;12.28;54.62;93638.91;5063086;28;20025;-72
2023/04/24 07:01:43;;;;;;;17.23;6.90;;;;;;;12.47;54.18;93647.19;5062683;28;20029;-73
2023/04/24 07:04:08;;;;;;;15.82;6.05;;;;;;;12.52;53.48;93636.31;5062459;28;20052;-73
2023/04/24 07:06:35;;;;;;;14.85;5.68;;;;;;;12.62;53.50;93627.09;5062587;28;20028;-73
2023/04/24 07:09:01;;;;;;;8.15;5.45;;;;;;;12.73;54.07;93627.44;5062576;28;20025;-72
2023/04/24 07:11:29;;;;;;;12.02;5.28;;;;;;;12.89;53.16;93624.91;5062573;28;20115;-73
2023/04/24 07:13:54;;;;;;;11.23;5.25;;;;;;;12.97;52.17;93627.47;5062507;28;20052;-73
2023/04/24 07:16:20;;;;;;;12.05;5.95;;;;;;;13.08;51.32;93622.44;5062517;28;20315;-74
2023/04/24 07:18:45;;;;;;;22.40;6.90;;;;;;;13.12;51.45;93625.25;5061366;28;20028;-73
2023/04/24 07:21:11;;;;;;;13.80;5.70;;;;;;;13.16;50.93;93620.78;5062328;28;20227;-73
2023/04/24 07:23:36;;;;;;;11.45;6.35;;;;;;;13.16;50.99;93623.47;5062241;28;20119;-72
2023/04/24 07:26:02;;;;;;;10.68;5.50;;;;;;;13.19;51.63;93618.22;5061335;28;20027;-72
2023/04/24 07:28:30;;;;;;;13.13;5.60;;;;;;;13.28;51.50;93628.03;5062403;28;20024;-72
2023/04/24 07:30:57;;;;;;;14.70;5.50;;;;;;;13.38;50.46;93617.69;5062594;28;20092;-72
2023/04/24 07:33:22;;;;;;;21.20;6.47;;;;;;;13.42;50.36;93613.22;5062539;28;20033;-72
2023/04/24 07:35:48;;;;;;;7.95;4.43;;;;;;;13.54;51.00;93614.31;5062554;28;20334;-72
2023/04/24 07:38:14;;;;;;;10.02;5.00;;;;;;;13.58;50.45;93604.50;5062243;28;20052;-72
2023/04/24 07:40:39;;;;;;;10.48;5.85;;;;;;;13.70;50.04;93604.47;5061064;28;20021;-73
2023/04/24 07:43:05;;;;;;;12.50;4.40;;;;;;;13.84;51.02;93604.88;5062221;28;20029;-72
2023/04/24 07:45:32;;;;;;;8.98;4.38;;;;;;;14.02;50.14;93609.94;5062143;28;20262;-72
2023/04/24 07:47:57;;;;;;;10.48;4.72;;;;;;;14.11;49.39;93607.91;5062251;28;20059;-73
2023/04/24 07:50:22;;;;;;;17.80;5.30;;;;;;;14.10;48.31;93603.66;5062383;28;20025;-73
2023/04/24 07:52:48;;;;;;;15.80;6.03;;;;;;;14.13;48.39;93599.56;5062090;28;20025;-72
2023/04/24 07:55:14;;;;;;;12.75;5.95;;;;;;;14.24;48.68;93598.69;5062110;28;20079;-72
2023/04/24 07:57:39;;;;;;;18.45;5.80;;;;;;;14.40;48.45;93592.59;5062341;28;20025;-72
2023/04/24 08:00:05;;;;;;;15.70;6.22;;;;;;;14.54;47.56;93601.00;5062110;28;20208;-72
2023/04/24 08:02:31;;;;;;;18.27;6.50;;;;;;;14.59;46.73;93595.44;5061992;28;20029;-72
2023/04/24 08:04:56;;;;;;;14.75;5.32;;;;;;;14.60;47.41;93596.22;5062023;28;20071;-74
2023/04/24 08:07:23;;;;;;;23.90;5.20;;;;;;;14.71;47.14;93594.56;5061766;28;20340;-73
2023/04/24 08:09:49;;;;;;;10.60;5.85;;;;;;;14.79;46.51;93590.16;5062159;28;20040;-72
2023/04/24 08:12:14;;;;;;;12.90;5.78;;;;;;;14.86;47.43;93593.03;5062011;28;20242;-73
2023/04/24 08:14:40;;;;;;;13.18;5.80;;;;;;;14.93;47.06;93587.81;5062291;28;20041;-72
2023/04/24 08:17:05;;;;;;;8.02;5.00;;;;;;;15.02;46.74;93585.75;5063329;28;20239;-72
2023/04/24 08:19:31;;;;;;;19.48;5.45;;;;;;;15.20;46.40;93590.75;5065873;28;20374;-73
2023/04/24 08:21:56;;;;;;;13.95;6.00;;;;;;;15.38;45.67;93589.25;5065563;28;20043;-73
2023/04/24 08:24:22;;;;;;;11.02;6.07;;;;;;;15.43;45.02;93572.13;5065618;28;20025;-72
2023/04/24 08:26:52;;;;;;;13.00;5.60;;;;;;;15.37;45.25;93579.66;5065795;28;20328;-73
2023/04/24 08:29:17;;;;;;;7.10;4.90;;;;;;;15.35;46.07;93583.81;5065600;28;20025;-73
2023/04/24 08:31:43;;;;;;;13.80;5.82;;;;;;;15.43;45.72;93578.25;5065283;28;20071;-73
2023/04/24 08:34:09;;;;;;;18.23;5.95;;;;;;;15.42;45.69;93576.69;5065255;28;20028;-73
2023/04/24 08:36:35;;;;;;;13.23;5.63;;;;;;;15.58;45.79;93578.56;5065214;28;20029;-74
2023/04/24 08:39:01;;;;;;;15.18;6.07;;;;;;;15.71;45.20;93579.97;5065328;28;20100;-74
2023/04/24 08:41:27;;;;;;;9.52;6.30;;;;;;;15.83;44.64;93571.03;5065104;28;20089;-73
2023/04/24 08:43:53;;;;;;;17.08;5.82;;;;;;;15.93;44.60;93561.66;5065242;28;20048;-73
2023/04/24 08:46:19;;;;;;;12.20;5.60;;;;;;;16.00;44.53;93561.81;5065262;28;20021;-73
2023/04/24 08:48:45;;;;;;;13.15;5.63;;;;;;;16.12;44.53;93552.78;5065029;28;20071;-75
2023/04/24 08:51:11;;;;;;;10.10;5.90;;;;;;;16.27;44.26;93554.63;5064933;28;20032;-73
2023/04/24 08:53:37;;;;;;;13.23;5.40;;;;;;;16.40;43.27;93552.56;5064764;28;20017;-73
2023/04/24 08:56:03;;;;;;;20.38;6.75;;;;;;;16.45;42.96;93549.59;5064181;28;20021;-73
2023/04/24 08:58:30;;;;;;;11.85;6.25;;;;;;;16.51;42.95;93547.38;5064757;28;20025;-73
2023/04/24 09:00:56;;;;;;;13.30;5.80;;;;;;;16.47;43.12;93541.94;5064882;28;20341;-74
2023/04/24 09:03:23;;;;;;;16.67;5.30;;;;;;;16.57;43.57;93541.34;5064854;28;20052;-73
2023/04/24 09:05:50;;;;;;;15.23;5.28;;;;;;;16.74;43.69;93539.31;5064500;28;20082;-73
2023/04/24 09:08:18;;;;;;;10.20;6.15;;;;;;;16.98;43.22;93533.56;5065010;28;20033;-73
2023/04/24 09:10:44;;;;;;;12.70;6.13;;;;;;;17.19;43.03;93535.03;5064857;28;20024;-74
2023/04/24 09:13:10;;;;;;;14.02;5.25;;;;;;;17.34;42.01;93531.41;5063424;28;20047;-73
2023/04/24 09:15:36;;;;;;;15.13;5.35;;;;;;;17.49;41.53;93534.31;5064664;28;20029;-73
2023/04/24 09:18:02;;;;;;;22.60;5.38;;;;;;;17.63;41.63;93531.81;5064713;28;20196;-73
2023/04/24 09:20:28;;;;;;;14.18;5.40;;;;;;;17.78;41.15;93525.44;5064486;28;20039;-73
2023/04/24 09:22:55;;;;;;;13.70;5.72;;;;;;;17.95;41.22;93523.34;5064674;28;20036;-74
2023/04/24 09:25:21;;;;;;;11.52;5.30;;;;;;;18.09;40.84;93518.13;5064504;28;20078;-74
2023/04/24 09:27:47;;;;;;;18.70;7.13;;;;;;;18.23;40.23;93512.88;5064320;28;20028;-74
2023/04/24 09:30:13;;;;;;;7.88;5.13;;;;;;;18.36;39.78;93516.09;5064465;28;20044;-73
2023/04/24 09:32:38;;;;;;;13.18;4.90;;;;;;;18.44;38.53;93514.25;5064384;28;20028;-73
2023/04/24 09:35:15;;;;;;;13.10;5.28;;;;;;;18.35;38.96;93505.69;5064144;28;20055;-73
2023/04/24 09:37:48;;;;;;;12.63;4.35;;;;;;;18.39;39.65;93504.56;5063942;28;20040;-73
2023/04/24 09:40:19;;;;;;;7.78;4.30;;;;;;;18.43;39.27;93507.28;5064360;28;20315;-73
2023/04/24 09:42:53;;;;;;;14.13;4.85;;;;;;;18.49;39.10;93503.13;5064061;28;20051;-75
2023/04/24 09:45:18;;;;;;;14.25;4.65;;;;;;;18.45;39.18;93513.09;5063925;28;20227;-74
2023/04/24 09:47:44;;;;;;;13.00;4.35;;;;;;;18.31;39.09;93499.47;5063942;28;20032;-74
2023/04/24 09:50:15;;;;;;;16.17;4.60;;;;;;;18.43;38.89;93499.19;5064032;28;20055;-73
2023/04/24 09:52:45;;;;;;;16.70;4.70;;;;;;;18.37;38.96;93498.75;5064129;28;20071;-74
2023/04/24 09:55:17;;;;;;;13.45;5.05;;;;;;;18.34;39.40;93496.81;5063731;28;20295;-73
2023/04/24 09:57:56;;;;;;;19.30;4.63;;;;;;;18.21;39.54;93495.50;5063689;28;20017;-74
2023/04/24 10:00:32;;;;;;;13.30;4.75;;;;;;;18.35;39.68;93497.59;5064063;28;20088;-73
2023/04/24 10:03:02;;;;;;;12.88;3.92;;;;;;;18.57;38.98;93483.13;5063767;28;20041;-73
2023/04/24 10:05:33;;;;;;;11.05;4.10;;;;;;;18.75;38.94;93480.59;5063529;28;20028;-74
2023/04/24 10:08:02;;;;;;;17.83;4.40;;;;;;;18.92;38.55;93481.91;5063655;28;20017;-74
2023/04/24 10:10:29;;;;;;;9.57;4.38;;;;;;;19.15;38.19;93467.38;5063722;28;20281;-74
2023/04/24 10:12:55;;;;;;;9.65;4.15;;;;;;;19.21;36.65;93466.69;5063442;28;20116;-73
2023/04/24 10:15:21;;;;;;;12.30;4.10;;;;;;;19.32;36.85;93460.56;5063649;28;20028;-74
2023/04/24 10:17:52;;;;;;;11.50;3.97;;;;;;;19.52;37.25;93458.31;5063517;28;20050;-74
2023/04/24 10:20:31;;;;;;;15.85;3.83;;;;;;;19.77;37.71;93448.41;5063644;28;20021;-74
2023/04/24 10:22:57;;;;;;;14.15;4.25;;;;;;;19.97;36.85;93448.88;5063363;28;20112;-74
2023/04/24 10:25:25;;;;;;;12.48;4.03;;;;;;;20.14;36.23;93443.88;5063057;28;20027;-74
2023/04/24 10:27:52;;;;;;;9.85;3.85;;;;;;;20.25;35.44;93439.25;5063563;28;20021;-74
2023/04/24 10:30:20;;;;;;;11.02;4.03;;;;;;;20.43;35.75;93442.00;5063415;28;20023;-74
2023/04/24 10:32:46;;;;;;;18.88;4.13;;;;;;;20.57;35.37;93439.28;5063327;28;20075;-74
2023/04/24 10:35:14;;;;;;;13.88;4.10;;;;;;;20.77;34.53;93436.22;5063076;28;20323;-74
2023/04/24 10:37:44;;;;;;;16.15;4.30;;;;;;;21.00;33.78;93433.91;5063436;28;20040;-74
2023/04/24 10:40:10;;;;;;;6.95;3.38;;;;;;;21.14;33.65;93432.31;5062402;28;20028;-74
2023/04/24 10:42:41;;;;;;;18.27;4.00;;;;;;;21.27;33.82;93436.16;5062861;28;20043;-73
2023/04/24 10:45:06;;;;;;;14.45;5.25;;;;;;;21.32;32.15;93427.63;5062920;28;20023;-74
2023/04/24 10:47:42;;;;;;;5.38;3.65;;;;;;;21.41;31.50;93429.91;5062929;28;20096;-74
2023/04/24 10:50:10;;;;;;;8.68;3.53;;;;;;;21.56;31.68;93417.13;5062622;28;20023;-74
2023/04/24 10:52:51;;;;;;;9.23;3.33;;;;;;;21.78;31.83;93413.16;5062919;28;20096;-74
2023/04/24 10:55:36;;;;;;;6.75;3.40;;;;;;;21.99;31.07;93414.22;5062937;28;20016;-74
2023/04/24 10:58:03;;;;;;;12.27;3.60;;;;;;;22.15;30.76;93417.22;5062448;28;20025;-74
2023/04/24 11:00:29;;;;;;;8.90;3.40;;;;;;;22.07;29.50;93412.25;5062869;28;20040;-74
2023/04/24 11:02:55;;;;;;;9.40;2.58;;;;;;;21.90;29.33;93405.72;5062647;28;20029;-74
2023/04/24 11:05:21;;;;;;;7.47;3.15;;;;;;;21.86;28.15;93402.25;5062851;28;20032;-74
2023/04/24 11:08:09;;;;;;;10.77;3.30;;;;;;;21.78;28.06;93401.53;5062935;28;20052;-74
2023/04/24 11:10:38;;;;;;;9.60;2.70;;;;;;;21.39;28.73;93395.09;5062569;28;20316;-74
2023/04/24 11:13:03;;;;;;;5.20;2.55;;;;;;;21.08;29.34;93406.78;5062547;28;20045;-73
2023/04/24 11:15:29;;;;;;;5.22;3.10;;;;;;;20.78;30.13;93397.94;5062392;28;20027;-74
2023/04/24 11:17:55;;;;;;;5.75;3.10;;;;;;;20.56;30.76;93407.22;5062615;28;20279;-74
2023/04/24 11:20:25;;;;;;;6.30;2.60;;;;;;;20.23;31.42;93415.31;5062541;28;20025;-74
2023/04/24 11:22:54;;;;;;;5.57;2.92;;;;;;;20.00;31.33;93412.16;5062808;28;20036;-74
2023/04/24 11:25:22;;;;;;;6.30;2.83;;;;;;;19.69;32.56;93411.66;5062448;28;20072;-75
2023/04/24 11:27:49;;;;;;;6.90;3.75;;;;;;;19.53;34.13;93444.44;5062718;28;20063;-73